Terminal Aerodrome Forecast
Issued by NWS Cleveland, OH

Home | Current Version | Previous Version | Text Only | Print | Product List | Glossary Off
Versions: 1 2 3 4 5 6 7 8 9 10 11 12 13 14 15

000
FTUS41 KCLE 181500 AAB
TAFYNG
TAF AMD
KYNG 181554Z 1816/1912 26008KT 4SM -SN OVC018
     FM190000 27006KT 3SM -SN BR OVC015
     FM190800 27006KT 6SM -SN OVC025=

USA.gov is the U.S. government's official web portal to all federal, state and local government web resources and services.